Time;durP1;ratioP1;P1;durP2;ratioP2;P2;SDS_P1;SDS_P2;PMS_P1;PMS_P2;Temp;Humidity;BMP_temperature;BMP_pressure;BME280_temperature;BME280_humidity;BME280_pressure;Samples;Min_cycle;Max_cycle;Signal;HPM_P1;HPM_P2
2023/05/22 00:01:18;;;;;;;24.08;18.45;;;;;;;21.36;57.53;101392.88;5011194;28;124094;-70
2023/05/22 00:03:45;;;;;;;25.38;18.23;;;;;;;21.37;57.61;101383.84;5004260;28;124114;-70
2023/05/22 00:06:13;;;;;;;23.90;17.67;;;;;;;21.39;57.55;101396.19;4994722;28;114217;-70
2023/05/22 00:08:40;;;;;;;24.63;18.30;;;;;;;21.40;57.48;101394.38;5009210;28;113931;-70
2023/05/22 00:11:08;;;;;;;24.08;17.42;;;;;;;21.42;57.49;101392.41;5007091;28;124434;-70
2023/05/22 00:13:35;;;;;;;24.63;18.77;;;;;;;21.42;57.58;101392.41;4981148;28;123606;-70
2023/05/22 00:16:02;;;;;;;23.65;17.40;;;;;;;21.41;57.41;101390.69;5013477;28;116159;-70
2023/05/22 00:18:29;;;;;;;23.60;17.75;;;;;;;21.39;57.62;101390.78;5011033;28;115270;-70
2023/05/22 00:20:56;;;;;;;23.95;18.33;;;;;;;21.38;57.65;101385.56;5020181;28;124060;-70
2023/05/22 00:23:24;;;;;;;24.90;18.00;;;;;;;21.35;57.78;101385.81;5011305;28;125165;-70
2023/05/22 00:25:51;;;;;;;27.65;19.67;;;;;;;21.31;57.68;101381.66;4990430;28;114646;-70
2023/05/22 00:28:19;;;;;;;27.80;19.13;;;;;;;21.28;57.86;101379.19;5008838;28;113680;-70
2023/05/22 00:30:46;;;;;;;27.63;19.23;;;;;;;21.25;57.94;101371.34;4977509;28;123060;-70
2023/05/22 00:33:13;;;;;;;26.90;19.88;;;;;;;21.18;57.99;101366.47;4998225;28;123393;-70
2023/05/22 00:35:40;;;;;;;28.25;20.58;;;;;;;21.14;58.01;101364.16;5028742;28;114299;-70
2023/05/22 00:38:07;;;;;;;28.90;20.75;;;;;;;21.11;58.05;101367.94;5002236;28;113740;-70
2023/05/22 00:40:35;;;;;;;26.95;20.40;;;;;;;21.08;58.28;101373.59;4987349;28;123160;-70
2023/05/22 00:43:07;;;;;;;28.85;21.10;;;;;;;21.07;58.20;101369.19;4997536;28;124077;-70
2023/05/22 00:45:34;;;;;;;28.63;20.98;;;;;;;21.05;58.42;101368.47;4992321;28;113590;-70
2023/05/22 00:48:01;;;;;;;29.95;21.73;;;;;;;21.01;58.49;101372.38;4993444;28;114401;-70
2023/05/22 00:50:29;;;;;;;28.80;21.55;;;;;;;20.98;58.44;101369.94;5009420;28;124145;-70
2023/05/22 00:52:56;;;;;;;35.03;21.60;;;;;;;20.96;58.49;101369.19;5010888;28;123743;-70
2023/05/22 00:55:23;;;;;;;31.38;21.85;;;;;;;20.93;58.77;101366.78;5009332;28;114327;-70
2023/05/22 00:57:51;;;;;;;30.13;21.33;;;;;;;20.88;58.52;101366.28;4989018;28;112938;-70
2023/05/22 01:00:18;;;;;;;29.50;21.23;;;;;;;20.87;58.63;101369.94;4978573;28;123445;-70
2023/05/22 01:02:45;;;;;;;33.72;20.65;;;;;;;20.85;58.68;101371.91;4987328;28;122539;-70
2023/05/22 01:05:16;;;;;;;35.05;22.23;;;;;;;20.81;58.74;101371.28;5010699;28;114839;-70
2023/05/22 01:07:45;;;;;;;28.50;21.48;;;;;;;20.78;58.74;101369.69;5007855;28;115277;-70
2023/05/22 01:10:12;;;;;;;31.75;22.13;;;;;;;20.76;58.75;101363.59;5010609;28;125638;-70
2023/05/22 01:12:42;;;;;;;34.90;20.98;;;;;;;20.74;59.02;101364.69;4994894;28;124028;-70
2023/05/22 01:15:46;;;;;;;31.38;21.88;;;;;;;20.71;58.90;101364.94;4981803;28;113619;-70
2023/05/22 01:18:30;;;;;;;31.80;20.27;;;;;;;20.67;58.96;101364.31;4961331;28;113399;-70
2023/05/22 01:21:08;;;;;;;29.27;20.75;;;;;;;20.67;59.08;101358.09;4993564;28;123630;-70
2023/05/22 01:23:59;;;;;;;32.22;21.67;;;;;;;20.65;59.07;101355.50;4993099;28;123039;-70
2023/05/22 01:27:00;;;;;;;32.38;21.23;;;;;;;20.64;58.92;101359.16;4982036;28;113328;-70
2023/05/22 01:29:40;;;;;;;30.90;20.15;;;;;;;20.64;59.09;101364.56;5008468;28;114732;-70
2023/05/22 01:32:11;;;;;;;29.35;19.27;;;;;;;20.62;58.94;101363.81;4994372;28;123898;-70
2023/05/22 01:34:43;;;;;;;32.40;20.08;;;;;;;20.58;59.54;101359.63;4969011;28;123112;-70
2023/05/22 01:37:12;;;;;;;28.30;19.85;;;;;;;20.54;59.06;101366.25;5009564;28;114385;-70
2023/05/22 01:39:41;;;;;;;36.45;21.77;;;;;;;20.52;59.14;101360.13;4981990;28;113156;-70
2023/05/22 01:42:09;;;;;;;33.35;21.00;;;;;;;20.50;59.32;101357.56;5010836;28;124108;-70
2023/05/22 01:44:36;;;;;;;27.90;20.55;;;;;;;20.50;59.16;101356.69;5012548;28;124044;-70
2023/05/22 01:47:04;;;;;;;28.58;20.10;;;;;;;20.50;59.32;101356.69;5010532;28;114721;-70
2023/05/22 01:49:33;;;;;;;31.50;20.27;;;;;;;20.49;59.31;101360.34;5014976;28;113089;-70
2023/05/22 01:52:10;;;;;;;32.50;20.35;;;;;;;20.47;59.23;101356.94;4970354;28;123164;-70
2023/05/22 01:54:45;;;;;;;34.00;21.42;;;;;;;20.45;59.36;101353.50;4975274;28;123560;-69
2023/05/22 01:57:18;;;;;;;33.93;21.00;;;;;;;20.42;59.19;101360.84;4994559;28;115770;-70
2023/05/22 01:59:55;;;;;;;31.15;20.20;;;;;;;20.39;59.16;101350.31;4995211;28;115692;-70
2023/05/22 02:02:24;;;;;;;31.52;20.15;;;;;;;20.36;59.36;101345.19;5004681;28;124546;-70
2023/05/22 02:04:57;;;;;;;29.77;18.95;;;;;;;20.33;59.41;101345.41;4990595;28;123664;-70
2023/05/22 02:07:26;;;;;;;30.02;20.35;;;;;;;20.32;59.32;101343.69;4991530;28;113172;-70
2023/05/22 02:09:56;;;;;;;30.77;19.42;;;;;;;20.31;59.36;101344.69;4988725;28;113229;-70
2023/05/22 02:12:24;;;;;;;27.42;20.23;;;;;;;20.31;59.26;101339.31;5008709;28;123210;-70
2023/05/22 02:14:52;;;;;;;26.50;19.50;;;;;;;20.29;59.05;101357.41;5008069;28;125141;-70
2023/05/22 02:17:20;;;;;;;33.03;21.63;;;;;;;20.26;59.19;101349.56;4981894;28;113627;-70
2023/05/22 02:19:48;;;;;;;28.52;19.70;;;;;;;20.22;59.20;101345.41;4995253;28;113288;-70
2023/05/22 02:22:15;;;;;;;29.35;20.30;;;;;;;20.20;59.31;101352.75;4985033;28;122960;-70
2023/05/22 02:24:45;;;;;;;29.88;19.23;;;;;;;20.19;59.32;101342.94;4991013;28;123765;-70
2023/05/22 02:27:16;;;;;;;27.55;18.42;;;;;;;20.17;59.35;101344.91;4988792;28;113537;-70
2023/05/22 02:29:43;;;;;;;33.03;19.65;;;;;;;20.15;59.34;101341.47;4992369;28;113232;-70
2023/05/22 02:32:10;;;;;;;28.90;19.83;;;;;;;20.11;59.25;101324.72;4991718;28;124108;-70
2023/05/22 02:34:37;;;;;;;26.88;20.88;;;;;;;20.10;59.42;101332.91;5012232;28;123685;-70
2023/05/22 02:37:04;;;;;;;30.63;19.88;;;;;;;20.05;59.37;101324.34;5000867;28;114413;-70
2023/05/22 02:39:32;;;;;;;29.08;19.33;;;;;;;20.01;59.29;101323.72;4975118;28;112492;-70
2023/05/22 02:41:59;;;;;;;32.75;20.10;;;;;;;19.98;59.41;101330.19;4992855;28;123168;-70
2023/05/22 02:44:26;;;;;;;29.15;20.15;;;;;;;19.94;59.55;101328.72;4995821;28;123368;-70
2023/05/22 02:46:54;;;;;;;28.98;18.98;;;;;;;19.90;59.46;101321.84;4978990;28;114808;-70
2023/05/22 02:49:21;;;;;;;28.20;19.80;;;;;;;19.88;59.67;101323.81;4982067;28;114867;-70
2023/05/22 02:51:48;;;;;;;25.38;19.17;;;;;;;19.84;59.65;101320.50;4978673;28;123411;-70
2023/05/22 02:54:15;;;;;;;30.65;18.73;;;;;;;19.84;59.55;101322.34;5009009;28;124103;-70
2023/05/22 02:56:43;;;;;;;28.73;20.40;;;;;;;19.81;59.74;101317.19;4992547;28;97770;-70
2023/05/22 02:59:11;;;;;;;27.55;20.20;;;;;;;19.77;59.68;101321.09;5007161;28;114292;-70
2023/05/22 03:01:38;;;;;;;26.42;19.67;;;;;;;19.75;59.55;101323.03;4994702;28;123103;-69
2023/05/22 03:04:05;;;;;;;32.25;20.35;;;;;;;19.72;59.61;101323.22;5018868;28;123888;-70
2023/05/22 03:06:34;;;;;;;29.58;20.50;;;;;;;19.68;59.71;101327.97;5004333;28;114449;-70
2023/05/22 03:09:03;;;;;;;30.95;20.45;;;;;;;19.65;59.73;101329.06;5010189;28;115281;-70
2023/05/22 03:11:30;;;;;;;30.20;19.77;;;;;;;19.60;59.69;101325.03;5013761;28;124208;-70
2023/05/22 03:13:58;;;;;;;28.52;19.83;;;;;;;19.56;59.76;101329.78;5010037;28;123959;-70
2023/05/22 03:16:25;;;;;;;31.10;20.85;;;;;;;19.53;59.69;101324.63;5000196;28;113305;-70
2023/05/22 03:19:13;;;;;;;31.77;20.52;;;;;;;19.50;59.97;101330.25;4995534;28;113953;-70
2023/05/22 03:21:44;;;;;;;33.50;21.92;;;;;;;19.48;59.84;101318.75;4990855;28;123564;-70
2023/05/22 03:24:12;;;;;;;32.78;21.27;;;;;;;19.45;60.13;101321.66;4994526;28;123870;-70
2023/05/22 03:26:39;;;;;;;35.13;21.50;;;;;;;19.43;59.96;101323.59;5012301;28;114935;-70
2023/05/22 03:29:09;;;;;;;28.27;18.83;;;;;;;19.41;59.90;101323.72;4990188;28;113295;-70
2023/05/22 03:31:39;;;;;;;27.75;19.88;;;;;;;19.40;60.02;101323.81;5009333;28;123321;-69
2023/05/22 03:34:10;;;;;;;31.17;19.80;;;;;;;19.38;60.08;101320.41;4989626;28;123042;-70
2023/05/22 03:36:38;;;;;;;31.63;21.50;;;;;;;19.37;60.13;101310.63;4986090;28;114517;-70
2023/05/22 03:39:05;;;;;;;36.00;21.60;;;;;;;19.35;60.34;101310.75;4967742;28;113507;-70
2023/05/22 03:41:37;;;;;;;29.00;20.02;;;;;;;19.35;60.19;101315.28;4977588;28;124994;-69
2023/05/22 03:44:05;;;;;;;34.10;21.92;;;;;;;19.32;60.24;101320.88;4989405;28;123669;-70
2023/05/22 03:46:33;;;;;;;33.65;22.23;;;;;;;19.29;60.28;101315.72;4991536;28;113088;-70
2023/05/22 03:49:00;;;;;;;35.90;20.33;;;;;;;19.24;60.32;101316.91;4994210;28;113307;-70
2023/05/22 03:51:27;;;;;;;35.90;22.55;;;;;;;19.22;60.57;101316.16;5012466;28;125079;-69
2023/05/22 03:53:54;;;;;;;38.25;23.95;;;;;;;19.21;60.74;101313.59;4976719;28;123096;-70
2023/05/22 03:56:21;;;;;;;37.40;20.33;;;;;;;19.19;60.74;101321.78;4990075;28;113304;-70
2023/05/22 03:58:49;;;;;;;31.10;20.90;;;;;;;19.18;60.61;101312.00;4974220;28;112475;-70
2023/05/22 04:01:16;;;;;;;44.58;22.15;;;;;;;19.17;60.96;101318.34;4997145;28;123301;-70
2023/05/22 04:03:44;;;;;;;39.33;22.92;;;;;;;19.16;60.83;101311.25;4990618;28;123624;-70
2023/05/22 04:06:12;;;;;;;47.55;23.60;;;;;;;19.11;61.08;101310.72;4997225;28;114354;-70
2023/05/22 04:08:39;;;;;;;35.40;20.23;;;;;;;19.14;61.07;101317.72;5008155;28;114698;-70
2023/05/22 04:11:07;;;;;;;89.03;22.90;;;;;;;19.12;61.13;101315.16;4977311;28;123306;-70
2023/05/22 04:13:34;;;;;;;91.53;23.35;;;;;;;19.11;61.06;101318.78;4979013;28;123069;-70
2023/05/22 04:16:03;;;;;;;88.25;21.75;;;;;;;19.09;61.02;101315.38;5008512;28;114811;-70
2023/05/22 04:18:30;;;;;;;46.00;21.02;;;;;;;19.06;61.20;101326.31;5006466;28;115140;-70
2023/05/22 04:20:57;;;;;;;53.95;22.17;;;;;;;19.04;61.17;101322.88;4978629;28;122876;-70
2023/05/22 04:23:24;;;;;;;32.85;21.13;;;;;;;19.03;61.32;101326.56;4990059;28;123828;-70
2023/05/22 04:25:52;;;;;;;68.50;19.75;;;;;;;19.01;61.29;101328.50;5015238;28;115085;-70
2023/05/22 04:28:22;;;;;;;36.67;21.63;;;;;;;19.01;61.36;101328.50;4995709;28;114354;-70
2023/05/22 04:30:49;;;;;;;44.20;22.23;;;;;;;18.99;61.37;101331.28;4989667;28;123464;-70
2023/05/22 04:33:17;;;;;;;33.67;18.60;;;;;;;18.99;61.46;101341.19;5019531;28;124422;-70
2023/05/22 04:35:44;;;;;;;35.05;19.35;;;;;;;19.00;61.44;101334.81;5011507;28;114011;-70
2023/05/22 04:38:11;;;;;;;26.05;18.13;;;;;;;19.01;61.33;101333.88;5013464;28;115048;-70
2023/05/22 04:40:39;;;;;;;64.97;22.58;;;;;;;19.02;61.71;101325.72;4980524;28;123431;-70
2023/05/22 04:43:07;;;;;;;31.45;19.40;;;;;;;19.02;61.55;101340.94;5015237;28;125480;-70
2023/05/22 04:45:34;;;;;;;28.10;17.58;;;;;;;19.04;61.55;101334.50;5024283;28;114664;-70
2023/05/22 04:48:01;;;;;;;41.13;18.05;;;;;;;19.07;61.45;101338.78;5015586;28;114353;-70
2023/05/22 04:50:34;;;;;;;37.90;18.38;;;;;;;19.07;61.49;101322.69;4997495;28;123697;-70
2023/05/22 04:53:05;;;;;;;36.63;21.05;;;;;;;19.06;61.46;101329.00;5003382;28;123906;-70
2023/05/22 04:55:35;;;;;;;31.10;16.85;;;;;;;19.05;61.27;101330.00;4973735;28;113076;-70
2023/05/22 04:58:04;;;;;;;33.35;18.27;;;;;;;19.04;61.58;101333.63;4997187;28;113935;-70
2023/05/22 05:00:32;;;;;;;33.00;18.27;;;;;;;19.03;61.36;101335.47;5011653;28;123794;-70
2023/05/22 05:02:59;;;;;;;45.47;19.17;;;;;;;19.03;61.27;101326.56;4989543;28;123154;-70
2023/05/22 05:05:26;;;;;;;39.40;17.67;;;;;;;19.01;61.51;101331.19;4977837;28;114115;-70
2023/05/22 05:07:55;;;;;;;59.42;19.45;;;;;;;19.00;61.34;101332.16;4970334;28;113810;-70
2023/05/22 05:10:22;;;;;;;36.33;19.27;;;;;;;18.98;61.38;101348.34;4981443;28;123822;-70
2023/05/22 05:12:49;;;;;;;27.85;16.60;;;;;;;18.94;61.35;101348.69;4987114;28;123639;-70
2023/05/22 05:15:17;;;;;;;26.88;15.10;;;;;;;18.91;61.37;101348.91;4993913;28;115085;-70
2023/05/22 05:17:45;;;;;;;24.48;14.93;;;;;;;18.88;61.32;101360.75;4990159;28;114673;-70
2023/05/22 05:20:13;;;;;;;78.43;19.73;;;;;;;18.82;61.26;101356.66;4986823;28;122959;-70
2023/05/22 05:22:42;;;;;;;40.20;17.40;;;;;;;18.78;61.34;101360.50;4987426;28;124031;-70
2023/05/22 05:25:10;;;;;;;76.40;19.50;;;;;;;18.75;61.51;101360.72;5007622;28;114473;-70
2023/05/22 05:27:38;;;;;;;48.72;19.60;;;;;;;18.75;61.54;101360.72;4992061;28;111760;-70
2023/05/22 05:30:06;;;;;;;41.30;19.23;;;;;;;18.76;61.70;101369.63;4997886;28;123690;-70
2023/05/22 05:32:56;;;;;;;50.25;19.17;;;;;;;18.77;61.81;101366.00;4994377;28;124965;-70
2023/05/22 05:35:32;;;;;;;83.32;20.25;;;;;;;18.75;61.70;101363.41;5001110;28;113256;-70
2023/05/22 05:38:02;;;;;;;67.18;20.80;;;;;;;18.74;61.82;101364.38;5021668;27;113027;-70
2023/05/22 05:40:32;;;;;;;85.50;21.88;;;;;;;18.74;61.85;101363.50;4973271;28;123826;-70
2023/05/22 05:42:59;;;;;;;75.00;21.40;;;;;;;18.72;62.05;101360.94;4981343;28;123092;-70
2023/05/22 05:45:28;;;;;;;42.55;22.50;;;;;;;18.71;61.89;101361.06;4990833;28;113753;-70
2023/05/22 05:47:56;;;;;;;67.05;23.20;;;;;;;18.71;62.18;101358.38;4990543;28;115122;-70
2023/05/22 05:50:23;;;;;;;52.85;22.95;;;;;;;18.69;62.15;101361.16;4986554;28;123738;-71
2023/05/22 05:52:51;;;;;;;76.43;25.13;;;;;;;18.68;62.10;101370.16;4992040;28;124107;-71
2023/05/22 05:55:19;;;;;;;86.15;26.25;;;;;;;18.68;62.15;101370.16;4986949;28;112562;-71
2023/05/22 05:57:47;;;;;;;59.13;25.38;;;;;;;18.66;61.98;101372.94;4984406;28;115443;-70
2023/05/22 06:00:22;;;;;;;46.58;25.15;;;;;;;18.65;62.06;101370.41;4986944;28;123753;-71
2023/05/22 06:02:51;;;;;;;73.80;26.08;;;;;;;18.64;62.23;101374.91;4983680;28;122124;-70
2023/05/22 06:05:41;;;;;;;77.93;26.58;;;;;;;18.64;62.21;101374.03;4996484;28;114486;-70
2023/05/22 06:08:33;;;;;;;48.65;26.63;;;;;;;18.63;62.13;101377.72;4993858;28;114634;-71
2023/05/22 06:11:01;;;;;;;43.72;26.63;;;;;;;18.62;62.50;101386.72;4983322;28;123241;-70
2023/05/22 06:13:32;;;;;;;48.40;26.67;;;;;;;18.64;62.55;101392.81;4996772;28;123208;-70
2023/05/22 06:16:00;;;;;;;35.15;26.00;;;;;;;18.63;62.60;101394.66;4988341;28;114097;-70
2023/05/22 06:18:31;;;;;;;42.17;25.42;;;;;;;18.63;62.69;101389.28;4991691;28;113889;-70
2023/05/22 06:20:59;;;;;;;51.55;27.00;;;;;;;18.66;62.78;101393.56;4978341;28;124304;-70
2023/05/22 06:23:27;;;;;;;40.60;27.52;;;;;;;18.68;62.70;101397.00;5015056;28;123961;-71
2023/05/22 06:25:56;;;;;;;58.65;28.60;;;;;;;18.69;62.89;101393.38;4982609;28;113738;-70
2023/05/22 06:28:24;;;;;;;48.15;28.48;;;;;;;18.72;62.76;101393.13;4978291;28;113394;-70
2023/05/22 06:30:51;;;;;;;46.35;29.13;;;;;;;18.75;63.05;101398.28;4979688;28;122995;-70
2023/05/22 06:33:21;;;;;;;68.28;30.25;;;;;;;18.78;62.99;101394.53;4995581;28;126059;-70
2023/05/22 06:35:49;;;;;;;72.15;30.70;;;;;;;18.82;62.99;101396.06;4989647;28;113668;-70
2023/05/22 06:38:16;;;;;;;75.60;30.70;;;;;;;18.84;62.79;101408.41;4993106;28;113736;-72
2023/05/22 06:40:44;;;;;;;73.75;31.27;;;;;;;18.84;62.99;101411.09;4989080;28;122377;-71
2023/05/22 06:43:20;;;;;;;58.60;31.17;;;;;;;18.84;62.90;101412.94;4988639;28;122933;-71
2023/05/22 06:45:54;;;;;;;60.15;31.40;;;;;;;18.86;62.91;101417.22;4993229;28;114667;-70
2023/05/22 06:48:21;;;;;;;64.97;28.48;;;;;;;18.86;62.80;101414.53;5013630;28;113848;-70
2023/05/22 06:51:10;;;;;;;;;;;;;;;18.88;62.56;101419.78;4997018;28;122487;-70
2023/05/22 06:53:38;;;;;;;43.60;29.63;;;;;;;18.91;62.64;101414.22;5006696;28;124941;-70
2023/05/22 06:56:11;;;;;;;53.20;30.52;;;;;;;18.96;62.80;101419.25;4974960;28;114825;-71
2023/05/22 06:58:48;;;;;;;56.08;31.75;;;;;;;18.99;62.98;101419.88;4993268;28;115308;-70
2023/05/22 07:01:15;;;;;;;47.83;32.30;;;;;;;19.03;62.89;101417.84;4988079;28;123074;-71
2023/05/22 07:03:54;;;;;;;57.28;32.85;;;;;;;19.10;63.16;101424.50;5000476;28;124683;-70
2023/05/22 07:06:45;;;;;;;50.50;31.85;;;;;;;19.16;62.94;101432.09;5010545;28;114702;-70
2023/05/22 07:09:14;;;;;;;54.15;34.08;;;;;;;19.19;62.99;101426.53;4988047;28;114908;-70
2023/05/22 07:11:42;;;;;;;57.90;34.80;;;;;;;19.22;62.86;101431.66;4988881;28;123703;-70
2023/05/22 07:14:11;;;;;;;53.25;34.00;;;;;;;19.24;62.91;101437.75;4961329;28;124196;-70
2023/05/22 07:16:40;;;;;;;52.80;33.63;;;;;;;19.29;63.04;101433.88;4984904;28;113732;-70
2023/05/22 07:19:10;;;;;;;53.63;33.65;;;;;;;19.32;62.81;101431.00;5010853;28;113229;-70
2023/05/22 07:21:38;;;;;;;49.78;32.72;;;;;;;19.36;63.18;101446.75;4991767;28;123338;-70
2023/05/22 07:24:08;;;;;;;52.17;33.38;;;;;;;19.42;63.09;101450.81;4979011;28;126179;-71
2023/05/22 07:26:45;;;;;;;52.30;34.17;;;;;;;19.48;63.19;101447.72;4992269;28;113737;-70
2023/05/22 07:29:13;;;;;;;50.17;33.83;;;;;;;19.53;63.20;101442.84;4962888;28;114051;-70
2023/05/22 07:31:41;;;;;;;54.63;35.65;;;;;;;19.60;63.10;101443.25;4998869;28;123641;-71
2023/05/22 07:34:09;;;;;;;54.28;35.63;;;;;;;19.68;63.22;101440.00;5004623;28;122534;-71
2023/05/22 07:36:36;;;;;;;54.35;35.13;;;;;;;19.75;63.17;101441.31;4999199;28;114468;-70
2023/05/22 07:39:04;;;;;;;58.22;36.50;;;;;;;19.82;62.93;101439.88;4994064;28;113161;-70
2023/05/22 07:41:36;;;;;;;52.47;36.08;;;;;;;19.88;63.10;101436.72;4980191;28;123160;-71
2023/05/22 07:44:05;;;;;;;57.83;36.90;;;;;;;19.96;62.96;101439.69;5001047;28;123440;-71
2023/05/22 07:46:36;;;;;;;58.15;37.45;;;;;;;20.05;62.89;101437.28;5001362;28;114367;-71
2023/05/22 07:49:18;;;;;;;58.88;36.47;;;;;;;20.10;62.84;101440.47;4988747;28;114334;-71
2023/05/22 07:51:46;;;;;;;56.42;36.08;;;;;;;20.17;62.90;101447.09;4961770;28;123007;-71
2023/05/22 07:54:15;;;;;;;57.30;34.88;;;;;;;20.25;62.59;101439.31;4991355;28;122908;-71
2023/05/22 07:56:44;;;;;;;51.30;34.30;;;;;;;20.33;62.67;101436.91;5002502;28;113460;-71
2023/05/22 07:59:24;;;;;;;53.25;35.95;;;;;;;20.39;62.60;101436.41;5000132;28;113349;-71
2023/05/22 08:01:54;;;;;;;57.22;36.60;;;;;;;20.49;62.66;101441.09;4979320;28;123322;-71
2023/05/22 08:04:24;;;;;;;55.17;36.53;;;;;;;20.59;62.49;101442.09;5032793;27;123738;-71
2023/05/22 08:06:52;;;;;;;55.92;36.83;;;;;;;20.68;62.50;101436.03;4989308;28;113437;-71
2023/05/22 08:09:20;;;;;;;55.30;36.25;;;;;;;20.80;62.74;101439.59;5009628;28;114057;-71
2023/05/22 08:11:47;;;;;;;60.22;37.67;;;;;;;20.94;62.83;101442.03;4978919;28;122989;-71
2023/05/22 08:14:14;;;;;;;56.63;36.33;;;;;;;21.06;62.66;101445.59;5006911;28;124481;-71
2023/05/22 08:16:42;;;;;;;55.72;35.50;;;;;;;21.16;62.65;101441.19;4989342;28;114176;-71
2023/05/22 08:19:09;;;;;;;62.47;39.00;;;;;;;21.24;62.05;101447.78;5009902;28;114279;-71
2023/05/22 08:21:36;;;;;;;53.35;37.60;;;;;;;21.32;62.22;101445.31;5009562;28;124206;-71
2023/05/22 08:24:04;;;;;;;56.97;37.95;;;;;;;21.44;62.13;101448.88;4993775;28;124063;-71
2023/05/22 08:26:32;;;;;;;55.08;36.70;;;;;;;21.55;62.08;101447.03;4998385;28;114195;-71
2023/05/22 08:28:59;;;;;;;54.58;36.03;;;;;;;21.69;61.68;101442.34;5018230;28;114511;-71
2023/05/22 08:31:28;;;;;;;58.63;38.42;;;;;;;21.81;62.00;101441.31;4988567;28;122478;-73
2023/05/22 08:34:01;;;;;;;53.28;37.22;;;;;;;21.93;61.66;101443.00;4956782;28;123509;-71
2023/05/22 08:36:30;;;;;;;54.92;37.67;;;;;;;22.11;61.91;101442.44;4977907;28;114469;-72
2023/05/22 08:38:57;;;;;;;56.25;38.30;;;;;;;22.26;61.54;101435.75;4991003;28;116124;-71
2023/05/22 08:41:24;;;;;;;52.13;36.00;;;;;;;22.37;61.26;101434.00;5014177;28;124820;-72
2023/05/22 08:43:51;;;;;;;55.13;36.50;;;;;;;22.46;61.23;101430.53;5018344;28;124198;-73
2023/05/22 08:46:24;;;;;;;53.80;36.47;;;;;;;22.61;61.50;101434.59;5013452;28;114452;-71
2023/05/22 08:48:55;;;;;;;47.55;33.90;;;;;;;22.74;60.91;101424.41;5017973;28;113884;-71
2023/05/22 08:51:27;;;;;;;51.05;34.28;;;;;;;22.90;60.69;101433.88;5007808;28;123531;-72
2023/05/22 08:53:57;;;;;;;46.97;33.25;;;;;;;23.03;60.56;101437.22;5013842;28;125033;-71
2023/05/22 08:56:25;;;;;;;47.30;33.47;;;;;;;23.15;60.26;101432.59;5010755;28;114423;-71
2023/05/22 08:58:56;;;;;;;46.13;34.05;;;;;;;23.28;60.41;101433.22;5009699;28;113898;-71
2023/05/22 09:01:24;;;;;;;47.38;34.13;;;;;;;23.42;60.32;101431.13;5008294;28;124132;-71
2023/05/22 09:03:51;;;;;;;46.42;33.55;;;;;;;23.54;59.99;101431.84;4982166;28;123093;-71
2023/05/22 09:06:18;;;;;;;50.67;36.13;;;;;;;23.67;59.98;101427.03;4973402;28;113278;-71
2023/05/22 09:08:45;;;;;;;45.55;34.63;;;;;;;23.82;60.21;101425.66;4991207;28;113211;-71
2023/05/22 09:11:13;;;;;;;45.67;32.15;;;;;;;23.97;59.42;101425.22;5008684;28;124056;-71
2023/05/22 09:13:41;;;;;;;45.65;32.40;;;;;;;24.10;59.07;101429.34;4980420;28;122626;-70
2023/05/22 09:16:10;;;;;;;41.95;30.63;;;;;;;24.19;58.92;101422.22;5003434;28;114019;-71
2023/05/22 09:18:38;;;;;;;45.60;33.45;;;;;;;24.32;59.17;101424.66;4991338;28;113353;-70
2023/05/22 09:21:06;;;;;;;48.15;32.90;;;;;;;24.43;58.67;101435.31;5016050;28;123375;-72
2023/05/22 09:23:57;;;;;;;42.28;31.48;;;;;;;24.55;58.23;101427.91;4991630;28;125030;-71
2023/05/22 09:26:28;;;;;;;44.22;29.58;;;;;;;24.64;58.08;101421.59;5005594;28;115134;-70
2023/05/22 09:28:58;;;;;;;40.20;28.42;;;;;;;24.74;57.74;101426.16;4990799;28;115222;-70
2023/05/22 09:31:27;;;;;;;36.83;27.92;;;;;;;24.87;57.53;101426.66;4991534;28;124001;-71
2023/05/22 09:33:55;;;;;;;40.15;29.05;;;;;;;24.95;57.52;101421.34;5002950;28;124650;-70
2023/05/22 09:36:31;;;;;;;36.72;28.95;;;;;;;25.05;56.62;101424.00;5001317;28;114066;-71
2023/05/22 09:39:03;;;;;;;36.55;27.50;;;;;;;25.14;56.73;101414.97;5007026;28;114250;-70
2023/05/22 09:41:36;;;;;;;37.00;27.73;;;;;;;25.24;56.47;101420.38;4993644;28;123494;-70
2023/05/22 09:44:11;;;;;;;38.35;28.77;;;;;;;25.34;56.33;101413.06;4990116;28;123835;-70
2023/05/22 09:46:40;;;;;;;42.65;29.27;;;;;;;25.39;56.03;101418.88;4971581;28;114144;-70
2023/05/22 09:49:07;;;;;;;39.75;28.38;;;;;;;25.45;55.67;101414.72;4987961;28;113529;-70
2023/05/22 09:51:39;;;;;;;39.05;27.15;;;;;;;25.52;55.69;101415.78;5007067;28;124772;-71
2023/05/22 09:54:08;;;;;;;37.63;24.38;;;;;;;25.64;56.10;101413.72;5006763;28;123949;-71
2023/05/22 09:56:35;;;;;;;39.97;28.35;;;;;;;25.79;56.15;101416.75;4989992;28;113320;-71
2023/05/22 09:59:08;;;;;;;40.33;28.73;;;;;;;25.90;55.42;101410.22;5005619;28;113875;-71
2023/05/22 10:01:38;;;;;;;37.80;27.77;;;;;;;25.99;54.61;101414.75;5007641;28;123878;-71
2023/05/22 10:04:11;;;;;;;47.33;29.20;;;;;;;26.05;54.54;101413.28;5011238;28;125861;-71
2023/05/22 10:06:40;;;;;;;38.80;27.98;;;;;;;26.12;54.08;101406.22;4993267;28;113040;-71
2023/05/22 10:09:14;;;;;;;38.88;28.13;;;;;;;26.12;54.07;101407.06;5012434;28;114025;-71
2023/05/22 10:11:47;;;;;;;41.08;28.73;;;;;;;26.14;53.84;101410.47;5009228;28;123872;-71
2023/05/22 10:14:15;;;;;;;37.05;27.75;;;;;;;26.20;54.19;101404.41;5011741;28;124687;-71
2023/05/22 10:16:44;;;;;;;38.03;27.33;;;;;;;26.27;53.91;101403.78;5010639;28;115534;-71
2023/05/22 10:19:11;;;;;;;35.58;24.83;;;;;;;26.30;53.42;101403.47;5012036;28;114965;-71
2023/05/22 10:21:40;;;;;;;38.53;27.25;;;;;;;26.34;53.35;101404.84;4998233;28;125424;-71
2023/05/22 10:24:08;;;;;;;34.55;25.55;;;;;;;26.40;53.37;101404.22;5011085;28;123682;-71
2023/05/22 10:26:37;;;;;;;35.22;25.35;;;;;;;26.47;53.39;101405.28;4985836;28;113300;-71
2023/05/22 10:29:10;;;;;;;30.92;24.67;;;;;;;26.55;53.22;101402.59;5006461;28;114281;-72
2023/05/22 10:31:37;;;;;;;32.42;23.90;;;;;;;26.63;52.32;101403.72;5010610;28;124208;-71
2023/05/22 10:34:32;;;;;;;31.87;22.10;;;;;;;26.70;52.21;101399.34;4992719;28;123118;-71
2023/05/22 10:37:27;;;;;;;31.58;23.58;;;;;;;26.77;52.16;101394.97;4984258;28;114149;-71
2023/05/22 10:40:01;;;;;;;32.23;22.53;;;;;;;26.87;52.34;101395.69;4990410;28;113831;-71
2023/05/22 10:42:32;;;;;;;29.83;22.13;;;;;;;26.92;51.96;101398.78;5023032;28;122378;-71
2023/05/22 10:45:00;;;;;;;32.83;23.88;;;;;;;26.96;51.91;101394.72;5014902;28;124635;-71
2023/05/22 10:47:27;;;;;;;29.48;22.98;;;;;;;27.05;52.27;101401.03;5011265;28;114520;-71
2023/05/22 10:50:09;;;;;;;31.13;23.10;;;;;;;27.11;52.05;101396.81;4975124;28;114218;-71
2023/05/22 10:52:38;;;;;;;29.23;21.90;;;;;;;27.20;51.79;101384.97;4977503;28;123101;-71
2023/05/22 10:55:08;;;;;;;30.77;22.73;;;;;;;27.25;51.67;101388.03;5012005;28;123974;-71
2023/05/22 10:57:39;;;;;;;28.80;21.30;;;;;;;27.29;51.01;101381.25;4992339;28;113401;-71
2023/05/22 11:00:13;;;;;;;29.48;20.92;;;;;;;27.33;50.99;101385.38;4992131;28;113732;-71
2023/05/22 11:02:45;;;;;;;31.15;21.25;;;;;;;27.38;51.29;101385.69;4975525;28;123385;-71
2023/05/22 11:05:20;;;;;;;27.42;21.38;;;;;;;27.42;50.92;101375.34;4983033;28;124487;-71
2023/05/22 11:07:48;;;;;;;32.30;22.02;;;;;;;27.50;50.63;101379.94;5009875;28;115242;-72
2023/05/22 11:10:44;;;;;;;25.27;20.67;;;;;;;27.54;50.34;101384.91;4992313;28;114529;-71
2023/05/22 11:13:11;;;;;;;31.13;22.77;;;;;;;27.62;50.75;101386.78;5005699;28;124003;-71
2023/05/22 11:15:44;;;;;;;30.13;24.23;;;;;;;27.70;50.35;101384.06;5001000;28;124174;-71